sensor_id;sensor_type;location;lat;lon;timestamp;temperature;humidity
14993;DHT22;7592;51.088;13.732;2022-07-23T00:03:43;21.20;99.90
14993;DHT22;7592;51.088;13.732;2022-07-23T00:08:36;21.10;99.90
14993;DHT22;7592;51.088;13.732;2022-07-23T00:13:28;21.00;99.90
14993;DHT22;7592;51.088;13.732;2022-07-23T00:18:20;20.90;99.90
14993;DHT22;7592;51.088;13.732;2022-07-23T00:23:13;20.80;99.90
14993;DHT22;7592;51.088;13.732;2022-07-23T00:28:05;20.70;99.90
14993;DHT22;7592;51.088;13.732;2022-07-23T00:33:00;20.70;99.90
14993;DHT22;7592;51.088;13.732;2022-07-23T00:37:53;20.60;99.90
14993;DHT22;7592;51.088;13.732;2022-07-23T00:42:47;20.50;99.90
14993;DHT22;7592;51.088;13.732;2022-07-23T00:47:39;20.60;99.90
14993;DHT22;7592;51.088;13.732;2022-07-23T00:52:32;20.50;99.90
14993;DHT22;7592;51.088;13.732;2022-07-23T00:57:24;20.50;99.90
14993;DHT22;7592;51.088;13.732;2022-07-23T01:02:20;20.60;99.90
14993;DHT22;7592;51.088;13.732;2022-07-23T01:07:12;20.60;99.90
14993;DHT22;7592;51.088;13.732;2022-07-23T01:12:05;20.60;99.90
14993;DHT22;7592;51.088;13.732;2022-07-23T01:16:58;20.60;99.90
14993;DHT22;7592;51.088;13.732;2022-07-23T01:21:58;20.70;99.90
14993;DHT22;7592;51.088;13.732;2022-07-23T01:26:55;20.90;99.90
14993;DHT22;7592;51.088;13.732;2022-07-23T01:31:50;21.00;99.90
14993;DHT22;7592;51.088;13.732;2022-07-23T01:36:46;21.00;99.90
14993;DHT22;7592;51.088;13.732;2022-07-23T01:41:44;21.00;99.90
14993;DHT22;7592;51.088;13.732;2022-07-23T01:46:43;21.00;99.90
14993;DHT22;7592;51.088;13.732;2022-07-23T01:51:37;20.80;99.90
14993;DHT22;7592;51.088;13.732;2022-07-23T01:56:57;20.60;99.90
14993;DHT22;7592;51.088;13.732;2022-07-23T02:01:52;20.50;99.90
14993;DHT22;7592;51.088;13.732;2022-07-23T02:06:47;20.40;99.90
14993;DHT22;7592;51.088;13.732;2022-07-23T02:11:46;20.30;99.90
14993;DHT22;7592;51.088;13.732;2022-07-23T02:16:41;20.40;99.90
14993;DHT22;7592;51.088;13.732;2022-07-23T02:21:35;20.60;99.90
14993;DHT22;7592;51.088;13.732;2022-07-23T02:26:30;20.50;99.90
14993;DHT22;7592;51.088;13.732;2022-07-23T02:31:31;20.40;99.90
14993;DHT22;7592;51.088;13.732;2022-07-23T02:36:32;20.40;99.90
14993;DHT22;7592;51.088;13.732;2022-07-23T02:41:32;20.30;99.90
14993;DHT22;7592;51.088;13.732;2022-07-23T02:46:26;20.30;99.90
14993;DHT22;7592;51.088;13.732;2022-07-23T02:51:28;20.30;99.90
14993;DHT22;7592;51.088;13.732;2022-07-23T02:56:27;20.20;99.90
14993;DHT22;7592;51.088;13.732;2022-07-23T03:01:24;20.20;99.90
14993;DHT22;7592;51.088;13.732;2022-07-23T03:06:20;20.20;99.90
14993;DHT22;7592;51.088;13.732;2022-07-23T03:11:15;20.30;99.90
14993;DHT22;7592;51.088;13.732;2022-07-23T03:16:15;20.30;99.90
14993;DHT22;7592;51.088;13.732;2022-07-23T03:21:11;20.30;99.90
14993;DHT22;7592;51.088;13.732;2022-07-23T03:26:23;20.30;99.90
14993;DHT22;7592;51.088;13.732;2022-07-23T03:31:19;20.30;99.90
14993;DHT22;7592;51.088;13.732;2022-07-23T03:36:13;20.20;99.90
14993;DHT22;7592;51.088;13.732;2022-07-23T03:41:15;20.10;99.90
14993;DHT22;7592;51.088;13.732;2022-07-23T03:46:09;20.20;99.90
14993;DHT22;7592;51.088;13.732;2022-07-23T03:51:03;20.20;99.90
14993;DHT22;7592;51.088;13.732;2022-07-23T03:56:05;20.30;99.90
14993;DHT22;7592;51.088;13.732;2022-07-23T04:00:59;20.40;99.90
14993;DHT22;7592;51.088;13.732;2022-07-23T04:05:57;20.50;99.90
14993;DHT22;7592;51.088;13.732;2022-07-23T04:10:55;20.70;99.90
14993;DHT22;7592;51.088;13.732;2022-07-23T04:15:50;20.80;99.90
14993;DHT22;7592;51.088;13.732;2022-07-23T04:20:44;20.70;99.90
14993;DHT22;7592;51.088;13.732;2022-07-23T04:25:44;20.70;99.90
14993;DHT22;7592;51.088;13.732;2022-07-23T04:30:43;20.60;99.90
14993;DHT22;7592;51.088;13.732;2022-07-23T04:35:41;20.70;99.90
14993;DHT22;7592;51.088;13.732;2022-07-23T04:40:42;20.80;99.90
14993;DHT22;7592;51.088;13.732;2022-07-23T04:45:36;21.00;99.90
14993;DHT22;7592;51.088;13.732;2022-07-23T04:50:32;21.10;99.90
14993;DHT22;7592;51.088;13.732;2022-07-23T04:55:39;21.00;99.90
14993;DHT22;7592;51.088;13.732;2022-07-23T05:00:35;21.00;99.90
14993;DHT22;7592;51.088;13.732;2022-07-23T05:05:33;21.20;99.90
14993;DHT22;7592;51.088;13.732;2022-07-23T05:10:35;21.60;99.90
14993;DHT22;7592;51.088;13.732;2022-07-23T05:15:32;21.90;99.90
14993;DHT22;7592;51.088;13.732;2022-07-23T05:20:30;22.20;99.90
14993;DHT22;7592;51.088;13.732;2022-07-23T05:25:26;22.70;99.90
14993;DHT22;7592;51.088;13.732;2022-07-23T05:30:28;23.20;99.90
14993;DHT22;7592;51.088;13.732;2022-07-23T05:35:26;23.60;99.90
14993;DHT22;7592;51.088;13.732;2022-07-23T05:41:05;23.40;99.90
14993;DHT22;7592;51.088;13.732;2022-07-23T05:46:15;23.40;99.90
14993;DHT22;7592;51.088;13.732;2022-07-23T05:51:19;23.30;99.90
14993;DHT22;7592;51.088;13.732;2022-07-23T05:56:16;23.30;99.90
14993;DHT22;7592;51.088;13.732;2022-07-23T06:01:12;23.00;99.90
14993;DHT22;7592;51.088;13.732;2022-07-23T06:06:14;22.90;99.90
14993;DHT22;7592;51.088;13.732;2022-07-23T06:11:11;22.60;99.90
14993;DHT22;7592;51.088;13.732;2022-07-23T06:16:04;22.30;99.90
14993;DHT22;7592;51.088;13.732;2022-07-23T06:21:00;22.10;99.90
14993;DHT22;7592;51.088;13.732;2022-07-23T06:26:18;22.10;99.90
14993;DHT22;7592;51.088;13.732;2022-07-23T06:31:17;22.00;99.90
14993;DHT22;7592;51.088;13.732;2022-07-23T06:36:15;22.00;99.90
14993;DHT22;7592;51.088;13.732;2022-07-23T06:41:08;22.00;99.90
14993;DHT22;7592;51.088;13.732;2022-07-23T06:46:02;22.00;99.90
14993;DHT22;7592;51.088;13.732;2022-07-23T06:50:59;22.30;99.90
14993;DHT22;7592;51.088;13.732;2022-07-23T06:55:53;22.80;99.90
14993;DHT22;7592;51.088;13.732;2022-07-23T07:00:51;23.70;99.90
14993;DHT22;7592;51.088;13.732;2022-07-23T07:05:45;25.00;99.90
14993;DHT22;7592;51.088;13.732;2022-07-23T07:10:40;25.70;99.90
14993;DHT22;7592;51.088;13.732;2022-07-23T07:15:32;29.80;99.90
14993;DHT22;7592;51.088;13.732;2022-07-23T07:20:31;31.50;97.90
14993;DHT22;7592;51.088;13.732;2022-07-23T07:30:28;31.10;93.30
14993;DHT22;7592;51.088;13.732;2022-07-23T07:35:26;29.70;95.50
14993;DHT22;7592;51.088;13.732;2022-07-23T07:40:22;28.60;97.00
14993;DHT22;7592;51.088;13.732;2022-07-23T07:45:21;28.60;98.10
14993;DHT22;7592;51.088;13.732;2022-07-23T07:50:14;32.40;93.10
14993;DHT22;7592;51.088;13.732;2022-07-23T07:55:09;36.50;80.40
14993;DHT22;7592;51.088;13.732;2022-07-23T08:00:10;39.80;64.80
14993;DHT22;7592;51.088;13.732;2022-07-23T08:05:09;38.60;61.90
14993;DHT22;7592;51.088;13.732;2022-07-23T08:10:08;36.80;63.00
14993;DHT22;7592;51.088;13.732;2022-07-23T08:15:04;33.40;69.10
14993;DHT22;7592;51.088;13.732;2022-07-23T08:20:04;31.40;74.30
14993;DHT22;7592;51.088;13.732;2022-07-23T08:25:00;31.20;76.30
14993;DHT22;7592;51.088;13.732;2022-07-23T08:29:52;32.40;75.20
14993;DHT22;7592;51.088;13.732;2022-07-23T08:34:48;32.60;74.70
14993;DHT22;7592;51.088;13.732;2022-07-23T08:39:40;32.90;72.70
14993;DHT22;7592;51.088;13.732;2022-07-23T08:44:35;32.20;74.00
14993;DHT22;7592;51.088;13.732;2022-07-23T08:49:32;32.20;74.40
14993;DHT22;7592;51.088;13.732;2022-07-23T08:54:27;31.40;75.80
14993;DHT22;7592;51.088;13.732;2022-07-23T08:59:33;31.80;75.90
14993;DHT22;7592;51.088;13.732;2022-07-23T09:04:26;32.10;75.10
14993;DHT22;7592;51.088;13.732;2022-07-23T09:09:20;33.60;73.30
14993;DHT22;7592;51.088;13.732;2022-07-23T09:14:13;34.90;70.20
14993;DHT22;7592;51.088;13.732;2022-07-23T09:19:07;34.90;68.30
14993;DHT22;7592;51.088;13.732;2022-07-23T09:24:07;33.90;70.10
14993;DHT22;7592;51.088;13.732;2022-07-23T09:29:15;33.30;71.30
14993;DHT22;7592;51.088;13.732;2022-07-23T09:39:16;37.90;60.90
14993;DHT22;7592;51.088;13.732;2022-07-23T09:44:16;36.60;61.30
14993;DHT22;7592;51.088;13.732;2022-07-23T09:49:20;34.10;66.30
14993;DHT22;7592;51.088;13.732;2022-07-23T09:54:21;32.10;71.20
14993;DHT22;7592;51.088;13.732;2022-07-23T09:59:16;32.50;72.10
14993;DHT22;7592;51.088;13.732;2022-07-23T10:04:11;33.80;68.50
14993;DHT22;7592;51.088;13.732;2022-07-23T10:09:37;34.00;67.50
14993;DHT22;7592;51.088;13.732;2022-07-23T10:14:53;32.70;70.90
14993;DHT22;7592;51.088;13.732;2022-07-23T10:19:49;32.10;72.70
14993;DHT22;7592;51.088;13.732;2022-07-23T10:25:08;31.50;73.90
14993;DHT22;7592;51.088;13.732;2022-07-23T10:30:10;31.80;73.80
14993;DHT22;7592;51.088;13.732;2022-07-23T10:40:28;34.60;67.60
14993;DHT22;7592;51.088;13.732;2022-07-23T10:50:28;34.80;65.30
14993;DHT22;7592;51.088;13.732;2022-07-23T11:00:29;33.80;68.90
14993;DHT22;7592;51.088;13.732;2022-07-23T11:05:46;35.40;65.10
14993;DHT22;7592;51.088;13.732;2022-07-23T11:16:23;34.00;66.70
14993;DHT22;7592;51.088;13.732;2022-07-23T11:21:42;32.20;70.90
14993;DHT22;7592;51.088;13.732;2022-07-23T11:26:56;32.60;70.60
14993;DHT22;7592;51.088;13.732;2022-07-23T11:32:33;32.80;70.30
14993;DHT22;7592;51.088;13.732;2022-07-23T11:37:39;32.00;74.40
14993;DHT22;7592;51.088;13.732;2022-07-23T11:42:36;30.50;77.20
14993;DHT22;7592;51.088;13.732;2022-07-23T11:52:48;28.90;82.60
14993;DHT22;7592;51.088;13.732;2022-07-23T11:57:47;29.10;82.90
14993;DHT22;7592;51.088;13.732;2022-07-23T12:02:52;29.40;82.60
14993;DHT22;7592;51.088;13.732;2022-07-23T12:08:14;30.30;81.50
14993;DHT22;7592;51.088;13.732;2022-07-23T12:13:29;29.50;83.00
14993;DHT22;7592;51.088;13.732;2022-07-23T12:18:24;28.60;85.80
14993;DHT22;7592;51.088;13.732;2022-07-23T12:23:24;28.10;88.40
14993;DHT22;7592;51.088;13.732;2022-07-23T12:28:29;27.60;90.30
14993;DHT22;7592;51.088;13.732;2022-07-23T12:33:29;27.50;90.80
14993;DHT22;7592;51.088;13.732;2022-07-23T12:38:36;28.10;90.80
14993;DHT22;7592;51.088;13.732;2022-07-23T12:43:47;29.70;88.50
14993;DHT22;7592;51.088;13.732;2022-07-23T12:48:54;30.90;84.70
14993;DHT22;7592;51.088;13.732;2022-07-23T12:53:59;30.70;83.70
14993;DHT22;7592;51.088;13.732;2022-07-23T12:59:10;30.20;84.50
14993;DHT22;7592;51.088;13.732;2022-07-23T13:04:12;30.50;84.20
14993;DHT22;7592;51.088;13.732;2022-07-23T13:09:22;30.80;83.30
14993;DHT22;7592;51.088;13.732;2022-07-23T13:14:24;29.90;85.40
14993;DHT22;7592;51.088;13.732;2022-07-23T13:19:24;29.50;86.40
14993;DHT22;7592;51.088;13.732;2022-07-23T13:24:39;29.60;87.40
14993;DHT22;7592;51.088;13.732;2022-07-23T13:29:34;29.30;87.80
14993;DHT22;7592;51.088;13.732;2022-07-23T13:34:27;29.60;87.40
14993;DHT22;7592;51.088;13.732;2022-07-23T13:39:21;29.40;87.50
14993;DHT22;7592;51.088;13.732;2022-07-23T13:44:17;29.40;88.00
14993;DHT22;7592;51.088;13.732;2022-07-23T13:49:21;29.80;88.30
14993;DHT22;7592;51.088;13.732;2022-07-23T13:54:14;29.90;87.40
14993;DHT22;7592;51.088;13.732;2022-07-23T13:59:06;30.30;86.80
14993;DHT22;7592;51.088;13.732;2022-07-23T14:03:58;30.60;87.10
14993;DHT22;7592;51.088;13.732;2022-07-23T14:08:52;31.20;83.40
14993;DHT22;7592;51.088;13.732;2022-07-23T14:13:44;30.70;84.10
14993;DHT22;7592;51.088;13.732;2022-07-23T14:18:36;30.40;85.70
14993;DHT22;7592;51.088;13.732;2022-07-23T14:23:28;30.00;85.20
14993;DHT22;7592;51.088;13.732;2022-07-23T14:28:21;30.30;85.90
14993;DHT22;7592;51.088;13.732;2022-07-23T14:33:13;30.30;85.40
14993;DHT22;7592;51.088;13.732;2022-07-23T14:38:08;30.20;84.30
14993;DHT22;7592;51.088;13.732;2022-07-23T14:43:00;29.90;84.50
14993;DHT22;7592;51.088;13.732;2022-07-23T14:47:53;29.90;85.30
14993;DHT22;7592;51.088;13.732;2022-07-23T14:52:45;29.70;85.40
14993;DHT22;7592;51.088;13.732;2022-07-23T14:57:40;29.40;85.90
14993;DHT22;7592;51.088;13.732;2022-07-23T15:02:32;28.50;88.40
14993;DHT22;7592;51.088;13.732;2022-07-23T15:07:25;28.30;89.30
14993;DHT22;7592;51.088;13.732;2022-07-23T15:12:18;28.30;90.00
14993;DHT22;7592;51.088;13.732;2022-07-23T15:17:12;27.90;89.60
14993;DHT22;7592;51.088;13.732;2022-07-23T15:22:07;28.30;90.00
14993;DHT22;7592;51.088;13.732;2022-07-23T15:26:59;28.30;89.00
14993;DHT22;7592;51.088;13.732;2022-07-23T15:31:53;28.70;88.40
14993;DHT22;7592;51.088;13.732;2022-07-23T15:36:49;28.70;88.60
14993;DHT22;7592;51.088;13.732;2022-07-23T15:41:45;28.00;89.90
14993;DHT22;7592;51.088;13.732;2022-07-23T15:46:39;27.80;90.60
14993;DHT22;7592;51.088;13.732;2022-07-23T15:51:34;27.90;90.80
14993;DHT22;7592;51.088;13.732;2022-07-23T15:56:26;28.20;90.40
14993;DHT22;7592;51.088;13.732;2022-07-23T16:01:21;28.30;90.20
14993;DHT22;7592;51.088;13.732;2022-07-23T16:06:15;28.00;90.90
14993;DHT22;7592;51.088;13.732;2022-07-23T16:11:11;27.90;91.20
14993;DHT22;7592;51.088;13.732;2022-07-23T16:16:05;27.90;91.20
14993;DHT22;7592;51.088;13.732;2022-07-23T16:20:58;27.80;91.70
14993;DHT22;7592;51.088;13.732;2022-07-23T16:26:01;27.60;92.00
14993;DHT22;7592;51.088;13.732;2022-07-23T16:30:53;27.20;92.30
14993;DHT22;7592;51.088;13.732;2022-07-23T16:35:45;27.00;93.00
14993;DHT22;7592;51.088;13.732;2022-07-23T16:40:38;26.60;93.60
14993;DHT22;7592;51.088;13.732;2022-07-23T16:45:30;26.30;94.30
14993;DHT22;7592;51.088;13.732;2022-07-23T16:50:22;26.20;94.90
14993;DHT22;7592;51.088;13.732;2022-07-23T16:55:15;26.00;95.60
14993;DHT22;7592;51.088;13.732;2022-07-23T17:00:08;26.00;96.10
14993;DHT22;7592;51.088;13.732;2022-07-23T17:05:03;26.00;96.40
14993;DHT22;7592;51.088;13.732;2022-07-23T17:09:55;26.10;97.20
14993;DHT22;7592;51.088;13.732;2022-07-23T17:14:48;26.10;96.40
14993;DHT22;7592;51.088;13.732;2022-07-23T17:19:45;26.10;97.10
14993;DHT22;7592;51.088;13.732;2022-07-23T17:24:41;26.00;97.80
14993;DHT22;7592;51.088;13.732;2022-07-23T17:29:37;25.80;98.20
14993;DHT22;7592;51.088;13.732;2022-07-23T17:34:31;25.70;98.50
14993;DHT22;7592;51.088;13.732;2022-07-23T17:39:32;25.60;98.70
14993;DHT22;7592;51.088;13.732;2022-07-23T17:44:32;25.40;98.80
14993;DHT22;7592;51.088;13.732;2022-07-23T17:49:28;25.10;99.60
14993;DHT22;7592;51.088;13.732;2022-07-23T17:54:22;25.00;99.90
14993;DHT22;7592;51.088;13.732;2022-07-23T17:59:20;24.80;99.90
14993;DHT22;7592;51.088;13.732;2022-07-23T18:04:13;24.70;99.90
14993;DHT22;7592;51.088;13.732;2022-07-23T18:09:07;24.60;99.90
14993;DHT22;7592;51.088;13.732;2022-07-23T18:14:03;24.40;99.90
14993;DHT22;7592;51.088;13.732;2022-07-23T18:18:57;24.30;99.90
14993;DHT22;7592;51.088;13.732;2022-07-23T18:23:52;24.10;99.90
14993;DHT22;7592;51.088;13.732;2022-07-23T18:28:46;24.00;99.90
14993;DHT22;7592;51.088;13.732;2022-07-23T18:33:40;23.90;99.90
14993;DHT22;7592;51.088;13.732;2022-07-23T18:38:34;23.70;99.90
14993;DHT22;7592;51.088;13.732;2022-07-23T18:43:31;23.60;99.90
14993;DHT22;7592;51.088;13.732;2022-07-23T18:48:30;23.50;99.90
14993;DHT22;7592;51.088;13.732;2022-07-23T18:53:24;23.30;99.90
14993;DHT22;7592;51.088;13.732;2022-07-23T18:58:18;23.10;99.90
14993;DHT22;7592;51.088;13.732;2022-07-23T19:03:15;22.90;99.90
14993;DHT22;7592;51.088;13.732;2022-07-23T19:08:35;22.70;99.90
14993;DHT22;7592;51.088;13.732;2022-07-23T19:13:32;22.60;99.90
14993;DHT22;7592;51.088;13.732;2022-07-23T19:18:25;22.40;99.90
14993;DHT22;7592;51.088;13.732;2022-07-23T19:23:18;22.30;99.90
14993;DHT22;7592;51.088;13.732;2022-07-23T19:28:11;22.20;99.90
14993;DHT22;7592;51.088;13.732;2022-07-23T19:33:07;22.00;99.90
14993;DHT22;7592;51.088;13.732;2022-07-23T19:38:03;21.90;99.90
14993;DHT22;7592;51.088;13.732;2022-07-23T19:43:00;21.70;99.90
14993;DHT22;7592;51.088;13.732;2022-07-23T19:47:53;21.60;99.90
14993;DHT22;7592;51.088;13.732;2022-07-23T19:52:55;21.50;99.90
14993;DHT22;7592;51.088;13.732;2022-07-23T19:57:51;21.50;99.90
14993;DHT22;7592;51.088;13.732;2022-07-23T20:02:46;21.40;99.90
14993;DHT22;7592;51.088;13.732;2022-07-23T20:07:47;21.30;99.90
14993;DHT22;7592;51.088;13.732;2022-07-23T20:12:40;21.10;99.90
14993;DHT22;7592;51.088;13.732;2022-07-23T20:17:34;21.00;99.90
14993;DHT22;7592;51.088;13.732;2022-07-23T20:22:29;21.00;99.90
14993;DHT22;7592;51.088;13.732;2022-07-23T20:27:24;20.90;99.90
14993;DHT22;7592;51.088;13.732;2022-07-23T20:32:18;20.70;99.90
14993;DHT22;7592;51.088;13.732;2022-07-23T20:37:11;20.60;99.90
14993;DHT22;7592;51.088;13.732;2022-07-23T20:42:04;20.60;99.90
14993;DHT22;7592;51.088;13.732;2022-07-23T20:46:58;20.60;99.90
14993;DHT22;7592;51.088;13.732;2022-07-23T20:51:52;20.50;99.90
14993;DHT22;7592;51.088;13.732;2022-07-23T20:56:47;20.40;99.90
14993;DHT22;7592;51.088;13.732;2022-07-23T21:01:41;20.30;99.90
14993;DHT22;7592;51.088;13.732;2022-07-23T21:06:36;20.20;99.90
14993;DHT22;7592;51.088;13.732;2022-07-23T21:11:32;20.00;99.90
14993;DHT22;7592;51.088;13.732;2022-07-23T21:16:26;19.90;99.90
14993;DHT22;7592;51.088;13.732;2022-07-23T21:21:20;19.90;99.90
14993;DHT22;7592;51.088;13.732;2022-07-23T21:26:15;19.80;99.90
14993;DHT22;7592;51.088;13.732;2022-07-23T21:31:23;19.70;99.90
14993;DHT22;7592;51.088;13.732;2022-07-23T21:36:17;19.60;99.90
14993;DHT22;7592;51.088;13.732;2022-07-23T21:41:12;19.50;99.90
14993;DHT22;7592;51.088;13.732;2022-07-23T21:46:07;19.40;99.90
14993;DHT22;7592;51.088;13.732;2022-07-23T21:51:04;19.30;99.90
14993;DHT22;7592;51.088;13.732;2022-07-23T21:55:59;19.20;99.90
14993;DHT22;7592;51.088;13.732;2022-07-23T22:00:58;19.30;99.90
